createdAt,value
2022-12-27T00:01:48.579Z,14.70
2022-12-27T00:04:15.194Z,15.35
2022-12-27T00:06:42.300Z,15.43
2022-12-27T00:09:08.912Z,15.75
2022-12-27T00:11:35.498Z,15.45
2022-12-27T00:14:03.897Z,15.73
2022-12-27T00:16:31.098Z,14.82
2022-12-27T00:18:58.523Z,16.10
2022-12-27T00:21:25.184Z,14.75
2022-12-27T00:23:54.596Z,16.58
2022-12-27T00:26:24.440Z,14.82
2022-12-27T00:28:51.253Z,15.80
2022-12-27T00:31:19.227Z,14.65
2022-12-27T00:33:47.459Z,14.63
2022-12-27T00:36:25.802Z,15.52
2022-12-27T00:38:53.405Z,13.90
2022-12-27T00:41:20.452Z,13.68
2022-12-27T00:43:47.887Z,14.48
2022-12-27T00:46:15.173Z,14.68
2022-12-27T00:48:43.428Z,14.32
2022-12-27T00:51:15.895Z,14.57
2022-12-27T00:53:42.989Z,14.27
2022-12-27T00:56:14.364Z,14.35
2022-12-27T00:58:41.285Z,13.93
2022-12-27T01:01:14.653Z,14.07
2022-12-27T01:03:41.295Z,13.75
2022-12-27T01:06:14.442Z,13.00
2022-12-27T01:08:41.817Z,14.18
2022-12-27T01:11:09.609Z,13.00
2022-12-27T01:13:36.992Z,13.63
2022-12-27T01:16:12.969Z,13.63
2022-12-27T01:18:39.612Z,12.50
2022-12-27T01:21:08.103Z,13.90
2022-12-27T01:23:35.470Z,13.38
2022-12-27T01:26:04.120Z,12.90
2022-12-27T01:28:30.676Z,13.57
2022-12-27T01:30:57.393Z,13.38
2022-12-27T01:33:24.450Z,12.13
2022-12-27T01:35:50.918Z,12.43
2022-12-27T01:38:17.407Z,12.32
2022-12-27T01:40:44.097Z,11.70
2022-12-27T01:43:18.462Z,12.50
2022-12-27T01:45:47.079Z,11.50
2022-12-27T01:48:21.963Z,11.68
2022-12-27T01:50:53.597Z,10.88
2022-12-27T01:53:23.265Z,11.60
2022-12-27T01:56:01.116Z,10.88
2022-12-27T01:58:30.623Z,11.38
2022-12-27T02:00:57.778Z,9.73
2022-12-27T02:03:32.871Z,10.88
2022-12-27T02:06:02.641Z,9.88
2022-12-27T02:08:57.969Z,10.07
2022-12-27T02:11:48.205Z,10.13
2022-12-27T02:14:16.984Z,10.38
2022-12-27T02:16:43.787Z,10.18
2022-12-27T02:19:33.670Z,9.00
2022-12-27T02:22:54.091Z,10.35
2022-12-27T02:25:51.405Z,9.88
2022-12-27T02:28:42.702Z,9.82
2022-12-27T02:31:17.068Z,10.73
2022-12-27T02:33:48.301Z,9.13
2022-12-27T02:36:20.613Z,9.43
2022-12-27T02:38:53.462Z,9.30
2022-12-27T02:41:39.210Z,8.30
2022-12-27T02:44:24.340Z,9.30
2022-12-27T02:47:11.541Z,9.15
2022-12-27T02:49:59.843Z,8.85
2022-12-27T02:53:09.086Z,9.10
2022-12-27T02:56:26.231Z,9.70
2022-12-27T02:58:55.734Z,8.88
2022-12-27T03:01:57.273Z,8.57
2022-12-27T03:04:36.232Z,8.68
2022-12-27T03:07:37.680Z,9.32
2022-12-27T03:10:50.965Z,4.68
2022-12-27T03:13:55.651Z,2.00
2022-12-27T03:16:37.913Z,1.80
2022-12-27T03:19:13.716Z,2.00
2022-12-27T03:22:05.596Z,1.48
2022-12-27T03:24:56.690Z,1.02
2022-12-27T03:27:29.262Z,1.30
2022-12-27T03:30:16.574Z,0.85
2022-12-27T03:33:09.104Z,0.90
2022-12-27T03:35:42.797Z,0.88
2022-12-27T03:38:12.870Z,0.80
2022-12-27T03:40:39.401Z,1.30
2022-12-27T03:43:15.601Z,0.93
2022-12-27T03:46:26.830Z,1.00
2022-12-27T03:49:07.067Z,0.95
2022-12-27T03:52:02.901Z,0.75
2022-12-27T03:54:41.304Z,1.08
2022-12-27T03:57:23.459Z,0.85
2022-12-27T03:59:50.300Z,1.20
2022-12-27T04:02:17.196Z,1.23
2022-12-27T04:04:44.697Z,1.33
2022-12-27T04:07:14.001Z,1.48
2022-12-27T04:09:59.396Z,1.30
2022-12-27T04:12:44.447Z,1.08
2022-12-27T04:15:29.955Z,1.67
2022-12-27T04:18:15.334Z,1.27
2022-12-27T04:21:00.807Z,1.30
2022-12-27T04:23:46.296Z,0.85
2022-12-27T04:26:31.204Z,1.65
2022-12-27T04:29:16.460Z,1.40
2022-12-27T04:32:01.393Z,1.10
2022-12-27T04:34:42.452Z,1.08
2022-12-27T04:37:11.510Z,1.05
2022-12-27T04:39:38.583Z,1.30
2022-12-27T04:42:24.260Z,0.90
2022-12-27T04:45:14.931Z,1.00
2022-12-27T04:48:00.522Z,0.90
2022-12-27T04:50:49.411Z,1.60
2022-12-27T04:53:37.291Z,1.17
2022-12-27T04:56:04.706Z,1.50
2022-12-27T04:58:31.999Z,1.38
2022-12-27T05:01:21.280Z,1.17
2022-12-27T05:03:51.730Z,1.38
2022-12-27T05:06:19.404Z,1.35
2022-12-27T05:09:04.598Z,1.85
2022-12-27T05:11:49.946Z,1.00
2022-12-27T05:14:16.696Z,1.30
2022-12-27T05:16:44.497Z,1.75
2022-12-27T05:19:12.693Z,1.95
2022-12-27T05:22:01.046Z,1.40
2022-12-27T05:24:46.236Z,1.60
2022-12-27T05:27:12.822Z,1.30
2022-12-27T05:29:39.345Z,1.33
2022-12-27T05:32:12.633Z,1.83
2022-12-27T05:34:39.880Z,1.50
2022-12-27T05:37:09.463Z,2.47
2022-12-27T05:39:36.047Z,1.92
2022-12-27T05:42:03.268Z,1.83
2022-12-27T05:44:30.037Z,1.60
2022-12-27T05:46:56.656Z,1.30
2022-12-27T05:49:23.228Z,1.40
2022-12-27T05:51:49.773Z,1.75
2022-12-27T05:54:16.498Z,1.38
2022-12-27T05:56:43.117Z,1.60
2022-12-27T05:59:09.684Z,1.90
2022-12-27T06:01:36.304Z,1.50
2022-12-27T06:04:02.956Z,1.58
2022-12-27T06:06:29.655Z,1.42
2022-12-27T06:08:56.177Z,2.00
2022-12-27T06:11:22.733Z,1.60
2022-12-27T06:13:52.166Z,1.92
2022-12-27T06:16:19.505Z,2.00
2022-12-27T06:18:46.116Z,2.35
2022-12-27T06:21:15.786Z,2.63
2022-12-27T06:23:44.760Z,2.53
2022-12-27T06:26:27.803Z,2.13
2022-12-27T06:28:58.808Z,2.95
2022-12-27T06:31:26.956Z,1.98
2022-12-27T06:33:54.630Z,1.90
2022-12-27T06:36:23.667Z,2.33
2022-12-27T06:38:50.405Z,2.03
2022-12-27T06:41:18.147Z,2.58
2022-12-27T06:43:46.298Z,2.33
2022-12-27T06:46:17.885Z,2.22
2022-12-27T06:48:46.201Z,2.10
2022-12-27T06:51:13.550Z,2.20
2022-12-27T06:53:40.576Z,1.88
2022-12-27T06:56:09.554Z,2.20
2022-12-27T06:58:36.073Z,3.13
2022-12-27T07:01:12.944Z,1.98
2022-12-27T07:06:07.983Z,2.20
2022-12-27T07:08:38.120Z,1.98
2022-12-27T07:11:07.645Z,2.38
2022-12-27T07:13:36.325Z,1.80
2022-12-27T07:16:07.646Z,2.13
2022-12-27T07:18:34.672Z,2.10
2022-12-27T07:21:09.170Z,1.80
2022-12-27T07:23:36.525Z,2.20
2022-12-27T07:26:08.723Z,2.17
2022-12-27T07:28:35.578Z,1.90
2022-12-27T07:31:10.207Z,2.38
2022-12-27T07:33:38.333Z,2.13
2022-12-27T07:36:08.028Z,2.13
2022-12-27T07:38:34.573Z,2.05
2022-12-27T07:41:02.094Z,2.13
2022-12-27T07:43:33.881Z,2.10
2022-12-27T07:46:06.551Z,2.53
2022-12-27T07:48:33.202Z,2.15
2022-12-27T07:51:00.130Z,2.30
2022-12-27T07:53:26.783Z,2.00
2022-12-27T07:55:54.710Z,1.73
2022-12-27T07:58:21.713Z,1.80
2022-12-27T08:00:50.480Z,1.88
2022-12-27T08:03:18.136Z,2.13
2022-12-27T08:05:46.904Z,3.05
2022-12-27T08:08:16.419Z,2.00
2022-12-27T08:10:42.960Z,1.73
2022-12-27T08:13:10.002Z,1.83
2022-12-27T08:15:38.169Z,2.05
2022-12-27T08:18:04.962Z,1.42
2022-12-27T08:20:31.472Z,1.73
2022-12-27T08:22:58.103Z,1.83
2022-12-27T08:25:25.179Z,1.63
2022-12-27T08:27:51.665Z,1.80
2022-12-27T08:30:18.661Z,2.15
2022-12-27T08:32:45.133Z,3.65
2022-12-27T08:35:50.005Z,1.67
2022-12-27T08:38:01.340Z,2.10
2022-12-27T08:40:27.950Z,1.88
2022-12-27T08:42:54.476Z,2.47
2022-12-27T08:45:21.162Z,2.10
2022-12-27T08:47:47.639Z,2.47
2022-12-27T08:50:14.178Z,2.78
2022-12-27T08:52:40.724Z,2.15
2022-12-27T08:55:07.662Z,2.88
2022-12-27T08:57:34.293Z,2.88
2022-12-27T09:00:00.889Z,2.53
2022-12-27T09:02:27.605Z,3.08
2022-12-27T09:04:54.135Z,2.70
2022-12-27T09:07:20.618Z,2.50
2022-12-27T09:09:47.144Z,3.10
2022-12-27T09:12:13.720Z,2.60
2022-12-27T09:14:40.200Z,3.05
2022-12-27T09:17:09.480Z,3.08
2022-12-27T09:19:36.427Z,2.80
2022-12-27T09:22:02.964Z,3.47
2022-12-27T09:24:29.635Z,3.13
2022-12-27T09:26:56.292Z,2.97
2022-12-27T09:29:22.949Z,3.17
2022-12-27T09:31:49.501Z,3.45
2022-12-27T09:34:16.000Z,2.90
2022-12-27T09:36:42.553Z,3.53
2022-12-27T09:39:12.210Z,3.08
2022-12-27T09:42:46.565Z,2.50
2022-12-27T09:44:59.347Z,2.75
2022-12-27T09:47:34.666Z,3.22
2022-12-27T09:50:10.625Z,2.50
2022-12-27T09:52:42.565Z,3.45
2022-12-27T09:55:41.701Z,2.58
2022-12-27T09:58:23.358Z,2.75
2022-12-27T10:00:51.617Z,2.47
2022-12-27T10:03:23.913Z,3.85
2022-12-27T10:05:58.671Z,1.90
2022-12-27T10:08:49.268Z,2.40
2022-12-27T10:11:37.860Z,2.63
2022-12-27T10:17:11.461Z,2.35
2022-12-27T10:20:00.777Z,2.80
2022-12-27T10:22:48.875Z,3.00
2022-12-27T10:25:20.695Z,4.03
2022-12-27T10:27:48.372Z,2.70
2022-12-27T10:30:17.413Z,2.55
2022-12-27T10:32:44.873Z,3.30
2022-12-27T10:35:17.011Z,2.33
2022-12-27T10:37:45.324Z,2.80
2022-12-27T10:40:25.545Z,13.43
2022-12-27T10:43:05.685Z,3.97
2022-12-27T10:45:39.449Z,2.88
2022-12-27T10:48:17.044Z,2.47
2022-12-27T10:50:54.729Z,2.55
2022-12-27T10:53:31.288Z,2.35
2022-12-27T10:56:08.663Z,2.60
2022-12-27T10:58:35.089Z,2.90
2022-12-27T11:01:01.610Z,2.53
2022-12-27T11:03:28.573Z,2.45
2022-12-27T11:06:18.484Z,2.05
2022-12-27T11:08:45.054Z,1.90
2022-12-27T11:11:26.992Z,2.28
2022-12-27T11:14:10.581Z,2.65
2022-12-27T11:16:38.712Z,2.42
2022-12-27T11:19:05.471Z,2.50
2022-12-27T11:21:37.831Z,2.85
2022-12-27T11:24:04.914Z,2.78
2022-12-27T11:26:54.153Z,2.58
2022-12-27T11:29:25.006Z,3.00
2022-12-27T11:31:53.017Z,2.97
2022-12-27T11:34:30.035Z,2.78
2022-12-27T11:37:14.183Z,3.00
2022-12-27T11:39:44.942Z,3.05
2022-12-27T11:45:19.865Z,3.00
2022-12-27T11:48:01.905Z,3.05
2022-12-27T11:50:28.331Z,3.05
2022-12-27T11:53:20.254Z,4.40
2022-12-27T11:55:54.307Z,2.70
2022-12-27T11:58:53.249Z,2.70
2022-12-27T12:01:37.804Z,2.13
2022-12-27T12:04:42.983Z,2.33
2022-12-27T12:07:32.304Z,2.45
2022-12-27T12:10:07.678Z,2.10
2022-12-27T12:12:55.523Z,2.25
2022-12-27T12:15:37.294Z,2.85
2022-12-27T12:18:25.509Z,2.80
2022-12-27T12:21:13.806Z,3.40
2022-12-27T12:24:00.495Z,3.50
2022-12-27T12:26:29.176Z,3.10
2022-12-27T12:29:23.040Z,3.30
2022-12-27T12:32:01.483Z,3.30
2022-12-27T12:34:48.048Z,3.83
2022-12-27T12:37:39.660Z,4.03
2022-12-27T12:40:36.013Z,3.20
2022-12-27T12:43:26.783Z,3.60
2022-12-27T12:46:22.270Z,2.78
2022-12-27T12:49:42.146Z,3.47
2022-12-27T12:52:40.087Z,3.45
2022-12-27T12:55:32.114Z,3.53
2022-12-27T12:58:27.330Z,3.50
2022-12-27T13:01:36.260Z,3.28
2022-12-27T13:04:20.242Z,4.22
2022-12-27T13:07:13.660Z,3.35
2022-12-27T13:10:13.901Z,3.60
2022-12-27T13:12:52.814Z,3.63
2022-12-27T13:15:43.875Z,3.67
2022-12-27T13:18:42.200Z,4.50
2022-12-27T13:21:30.212Z,4.47
2022-12-27T13:24:15.904Z,4.93
2022-12-27T13:26:45.377Z,4.20
2022-12-27T13:29:17.997Z,5.20
2022-12-27T13:31:57.783Z,4.90
2022-12-27T13:34:45.284Z,4.70
2022-12-27T13:37:39.083Z,5.43
2022-12-27T13:40:41.997Z,4.82
2022-12-27T13:43:34.776Z,4.93
2022-12-27T13:46:23.269Z,4.50
2022-12-27T13:48:55.604Z,5.43
2022-12-27T13:51:42.373Z,5.15
2022-12-27T13:54:17.896Z,5.05
2022-12-27T13:57:10.413Z,4.47
2022-12-27T14:00:03.101Z,5.43
2022-12-27T14:02:32.603Z,5.38
2022-12-27T14:05:02.369Z,5.55
2022-12-27T14:07:49.908Z,5.47
2022-12-27T14:10:31.564Z,5.32
2022-12-27T14:13:03.706Z,4.82
2022-12-27T14:16:17.764Z,5.40
2022-12-27T14:19:01.320Z,4.90
2022-12-27T14:21:59.744Z,5.05
2022-12-27T14:24:49.548Z,5.80
2022-12-27T14:27:34.110Z,4.63
2022-12-27T14:30:21.368Z,5.22
2022-12-27T14:32:59.974Z,5.00
2022-12-27T14:35:45.353Z,5.07
2022-12-27T14:38:33.677Z,4.68
2022-12-27T14:41:12.297Z,5.05
2022-12-27T14:44:12.956Z,5.05
2022-12-27T14:47:08.405Z,5.28
2022-12-27T14:50:13.844Z,5.22
2022-12-27T14:53:02.563Z,5.53
2022-12-27T14:58:23.775Z,6.05
2022-12-27T15:01:03.504Z,5.18
2022-12-27T15:03:41.286Z,5.80
2022-12-27T15:06:26.822Z,6.93
2022-12-27T15:09:17.949Z,6.60
2022-12-27T15:12:04.899Z,7.10
2022-12-27T15:14:54.034Z,6.30
2022-12-27T15:17:40.945Z,6.70
2022-12-27T15:20:35.413Z,6.50
2022-12-27T15:23:17.243Z,8.02
2022-12-27T15:26:07.762Z,6.97
2022-12-27T15:28:49.770Z,6.85
2022-12-27T15:31:19.252Z,7.18
2022-12-27T15:34:02.791Z,6.72
2022-12-27T15:36:37.006Z,7.47
2022-12-27T15:39:04.015Z,6.65
2022-12-27T15:42:08.927Z,7.28
2022-12-27T15:44:35.373Z,7.30
2022-12-27T15:47:24.984Z,6.72
2022-12-27T15:50:17.442Z,6.28
2022-12-27T15:52:46.724Z,6.75
2022-12-27T15:55:34.852Z,5.82
2022-12-27T15:58:01.906Z,5.78
2022-12-27T16:00:33.960Z,6.80
2022-12-27T16:03:38.045Z,6.90
2022-12-27T16:06:07.731Z,6.47
2022-12-27T16:08:39.832Z,5.80
2022-12-27T16:11:12.182Z,6.70
2022-12-27T16:13:42.855Z,5.88
2022-12-27T16:18:54.990Z,6.25
2022-12-27T16:21:25.156Z,5.35
2022-12-27T16:23:56.084Z,5.38
2022-12-27T16:26:27.060Z,5.13
2022-12-27T16:29:03.295Z,5.30
2022-12-27T16:31:32.872Z,5.15
2022-12-27T16:34:10.492Z,5.32
2022-12-27T16:36:47.039Z,5.45
2022-12-27T16:39:45.556Z,5.10
2022-12-27T16:42:12.388Z,5.85
2022-12-27T16:44:48.296Z,5.95
2022-12-27T16:47:33.110Z,5.55
2022-12-27T16:50:22.329Z,5.85
2022-12-27T16:52:56.496Z,5.63
2022-12-27T16:55:43.426Z,5.10
2022-12-27T16:58:16.154Z,5.38
2022-12-27T17:00:53.931Z,5.18
2022-12-27T17:03:35.771Z,6.15
2022-12-27T17:06:38.003Z,5.07
2022-12-27T17:09:10.723Z,6.57
2022-12-27T17:11:57.573Z,5.93
2022-12-27T17:14:31.849Z,5.82
2022-12-27T17:17:23.244Z,5.72
2022-12-27T17:20:00.714Z,5.70
2022-12-27T17:22:34.275Z,5.00
2022-12-27T17:25:14.064Z,4.80
2022-12-27T17:27:46.348Z,5.28
2022-12-27T17:30:17.737Z,5.22
2022-12-27T17:33:02.772Z,5.82
2022-12-27T17:35:38.063Z,5.43
2022-12-27T17:38:58.971Z,5.68
2022-12-27T17:42:08.027Z,6.28
2022-12-27T17:44:47.673Z,6.30
2022-12-27T17:47:37.186Z,5.32
2022-12-27T17:50:06.550Z,5.03
2022-12-27T17:52:51.968Z,5.22
2022-12-27T17:55:43.700Z,5.30
2022-12-27T17:58:13.511Z,5.22
2022-12-27T18:00:54.595Z,4.97
2022-12-27T18:03:23.181Z,5.18
2022-12-27T18:05:49.746Z,4.93
2022-12-27T18:08:30.926Z,5.30
2022-12-27T18:10:59.078Z,5.80
2022-12-27T18:13:29.760Z,5.40
2022-12-27T18:15:57.338Z,5.63
2022-12-27T18:18:32.084Z,5.32
2022-12-27T18:21:04.210Z,4.40
2022-12-27T18:23:41.221Z,5.82
2022-12-27T18:26:14.189Z,5.03
2022-12-27T18:28:42.348Z,5.63
2022-12-27T18:31:32.765Z,5.30
2022-12-27T18:34:04.159Z,5.05
2022-12-27T18:36:40.006Z,5.43
2022-12-27T18:39:20.219Z,5.72
2022-12-27T18:41:49.408Z,5.55
2022-12-27T18:44:26.480Z,5.28
2022-12-27T18:46:56.922Z,5.47
2022-12-27T18:49:26.712Z,5.95
2022-12-27T18:51:55.195Z,6.13
2022-12-27T18:54:27.698Z,5.10
2022-12-27T18:56:56.240Z,4.25
2022-12-27T18:59:26.497Z,5.13
2022-12-27T19:01:54.575Z,4.85
2022-12-27T19:04:24.158Z,5.72
2022-12-27T19:06:56.451Z,5.03
2022-12-27T19:09:27.752Z,5.53
2022-12-27T19:11:58.104Z,4.97
2022-12-27T19:14:26.687Z,4.00
2022-12-27T19:16:59.138Z,5.50
2022-12-27T19:19:31.531Z,5.32
2022-12-27T19:21:58.667Z,4.60
2022-12-27T19:24:27.838Z,5.63
2022-12-27T19:26:57.101Z,5.07
2022-12-27T19:29:27.208Z,5.00
2022-12-27T19:31:58.573Z,5.20
2022-12-27T19:34:28.772Z,5.65
2022-12-27T19:36:56.388Z,4.70
2022-12-27T19:39:29.758Z,5.60
2022-12-27T19:42:00.751Z,4.95
2022-12-27T19:44:27.971Z,5.00
2022-12-27T19:46:54.534Z,5.22
2022-12-27T19:52:16.573Z,4.65
2022-12-27T19:54:43.200Z,5.00
2022-12-27T19:57:12.470Z,4.68
2022-12-27T19:59:39.053Z,5.03
2022-12-27T20:02:05.978Z,5.35
2022-12-27T20:04:32.995Z,5.45
2022-12-27T20:07:00.438Z,5.10
2022-12-27T20:09:27.505Z,5.00
2022-12-27T20:11:54.370Z,4.80
2022-12-27T20:14:20.939Z,4.65
2022-12-27T20:16:47.912Z,4.35
2022-12-27T20:19:18.314Z,4.68
2022-12-27T20:21:45.125Z,4.28
2022-12-27T20:24:13.064Z,4.47
2022-12-27T20:26:41.172Z,4.63
2022-12-27T20:29:07.952Z,4.88
2022-12-27T20:31:37.659Z,4.85
2022-12-27T20:34:11.104Z,4.97
2022-12-27T20:36:37.729Z,5.70
2022-12-27T20:39:04.339Z,5.03
2022-12-27T20:41:30.813Z,5.22
2022-12-27T20:43:58.396Z,5.15
2022-12-27T20:46:25.591Z,5.10
2022-12-27T20:48:53.826Z,5.85
2022-12-27T20:51:23.379Z,5.30
2022-12-27T20:53:54.967Z,4.85
2022-12-27T20:56:21.800Z,4.82
2022-12-27T20:58:49.392Z,5.00
2022-12-27T21:01:20.084Z,4.90
2022-12-27T21:03:46.892Z,4.70
2022-12-27T21:06:20.562Z,4.93
2022-12-27T21:08:54.405Z,5.18
2022-12-27T21:11:30.358Z,4.55
2022-12-27T21:13:57.533Z,4.70
2022-12-27T21:16:26.310Z,5.43
2022-12-27T21:18:53.729Z,5.18
2022-12-27T21:21:27.409Z,5.00
2022-12-27T21:23:55.305Z,4.70
2022-12-27T21:26:25.020Z,5.07
2022-12-27T21:28:51.748Z,5.03
2022-12-27T21:31:19.466Z,4.63
2022-12-27T21:33:46.768Z,5.78
2022-12-27T21:36:20.087Z,4.95
2022-12-27T21:38:47.317Z,4.70
2022-12-27T21:41:20.130Z,5.07
2022-12-27T21:43:47.983Z,4.85
2022-12-27T21:46:20.377Z,5.03
2022-12-27T21:48:47.466Z,4.85
2022-12-27T21:51:18.277Z,5.10
2022-12-27T21:56:13.611Z,4.57
2022-12-27T21:58:42.032Z,4.80
2022-12-27T22:01:14.633Z,4.60
2022-12-27T22:03:44.458Z,4.95
2022-12-27T22:06:14.428Z,5.30
2022-12-27T22:08:42.735Z,5.85
2022-12-27T22:11:09.936Z,5.05
2022-12-27T22:13:37.343Z,5.03
2022-12-27T22:16:06.600Z,5.18
2022-12-27T22:18:35.252Z,5.10
2022-12-27T22:21:04.598Z,5.20
2022-12-27T22:23:32.711Z,5.70
2022-12-27T22:25:59.442Z,6.03
2022-12-27T22:28:26.493Z,5.22
2022-12-27T22:30:53.426Z,5.53
2022-12-27T22:33:20.698Z,5.28
2022-12-27T22:35:47.389Z,5.88
2022-12-27T22:38:13.907Z,6.13
2022-12-27T22:40:45.909Z,6.10
2022-12-27T22:43:14.078Z,5.90
2022-12-27T22:45:42.483Z,6.80
2022-12-27T22:48:09.178Z,5.50
2022-12-27T22:50:38.100Z,5.82
2022-12-27T22:53:04.800Z,6.30
2022-12-27T22:55:31.393Z,6.20
2022-12-27T22:57:58.019Z,5.82
2022-12-27T23:00:24.524Z,6.53
2022-12-27T23:02:51.108Z,5.13
2022-12-27T23:05:17.878Z,5.32
2022-12-27T23:08:04.194Z,5.57
2022-12-27T23:10:31.108Z,5.03
2022-12-27T23:12:57.590Z,5.20
2022-12-27T23:15:24.195Z,5.60
2022-12-27T23:17:52.234Z,4.75
2022-12-27T23:20:18.975Z,5.95
2022-12-27T23:22:45.481Z,5.13
2022-12-27T23:25:11.966Z,5.13
2022-12-27T23:27:38.482Z,5.40
2022-12-27T23:30:05.335Z,5.00
2022-12-27T23:32:31.968Z,5.57
2022-12-27T23:34:58.503Z,5.05
2022-12-27T23:37:25.217Z,6.05
2022-12-27T23:39:51.680Z,5.28
2022-12-27T23:42:18.215Z,5.18
2022-12-27T23:44:44.682Z,5.20
2022-12-27T23:47:11.523Z,5.38
2022-12-27T23:49:38.025Z,5.47
2022-12-27T23:52:04.808Z,5.90
2022-12-27T23:54:31.392Z,5.95
2022-12-27T23:56:57.991Z,5.30
2022-12-27T23:59:24.754Z,5.38
